Time;durP1;ratioP1;P1;durP2;ratioP2;P2;SDS_P1;SDS_P2;PMS_P1;PMS_P2;Temp;Humidity;BMP_temperature;BMP_pressure;BME280_temperature;BME280_humidity;BME280_pressure;Samples;Min_cycle;Max_cycle;Signal;HPM_P1;HPM_P2
2021/07/25 00:00:36;;;;;;;;;2.75;2.50;;;;;21.53;60.21;100477.22;5014545;28;45566;-69
2021/07/25 00:03:02;;;;;;;;;2.00;2.00;;;;;21.52;60.71;100480.16;5005381;28;45585;-71
2021/07/25 00:05:27;;;;;;;;;4.00;2.50;;;;;21.49;60.08;100476.06;5007665;28;46363;-69
2021/07/25 00:07:52;;;;;;;;;1.50;1.25;;;;;21.47;60.50;100470.91;5012544;28;45550;-69
2021/07/25 00:10:18;;;;;;;;;2.00;2.00;;;;;21.51;59.91;100478.50;4996437;28;45497;-68
2021/07/25 00:12:43;;;;;;;;;3.00;2.00;;;;;21.49;60.34;100470.69;5007791;28;45524;-73
2021/07/25 00:15:09;;;;;;;;;3.00;2.50;;;;;21.51;59.69;100470.44;5011208;28;45400;-68
2021/07/25 00:17:34;;;;;;;;;3.00;2.00;;;;;21.47;60.34;100473.59;5006553;28;45531;-71
2021/07/25 00:20:01;;;;;;;;;4.00;2.00;;;;;21.48;60.18;100471.72;5012893;28;45428;-70
2021/07/25 00:22:27;;;;;;;;;1.25;1.25;;;;;21.46;61.18;100471.13;5012461;28;45436;-66
2021/07/25 00:25:03;;;;;;;;;2.00;2.00;;;;;21.43;59.82;100471.59;5008565;28;45555;-68
2021/07/25 00:27:29;;;;;;;;;1.00;1.00;;;;;21.42;60.05;100467.28;5014234;28;45530;-69
2021/07/25 00:29:54;;;;;;;;;2.00;2.00;;;;;21.34;60.75;100468.38;5002430;28;45835;-71
2021/07/25 00:32:20;;;;;;;;;6.50;3.00;;;;;21.29;60.31;100464.69;5009872;28;45423;-70
2021/07/25 00:34:45;;;;;;;;;3.00;1.00;;;;;21.26;60.61;100463.28;5011854;28;45346;-71
2021/07/25 00:37:10;;;;;;;;;1.50;1.00;;;;;21.26;60.87;100461.44;5009145;28;45537;-70
2021/07/25 00:39:36;;;;;;;;;2.00;2.00;;;;;21.25;60.97;100465.16;5001871;28;45593;-70
2021/07/25 00:42:03;;;;;;;;;2.25;2.25;;;;;21.21;60.62;100455.09;5012408;28;45450;-69
2021/07/25 00:44:28;;;;;;;;;2.00;2.00;;;;;21.18;60.88;100450.16;5003464;28;45545;-70
2021/07/25 00:46:59;;;;;;;;;2.00;2.00;;;;;21.14;60.93;100452.50;5008936;28;45456;-70
2021/07/25 00:49:26;;;;;;;;;3.75;2.00;;;;;21.12;60.70;100454.59;5007139;28;45402;-67
2021/07/25 00:51:52;;;;;;;;;3.00;2.00;;;;;21.14;61.33;100451.66;5009578;28;45548;-70
2021/07/25 00:54:19;;;;;;;;;1.00;1.00;;;;;21.15;61.28;100453.31;5007964;28;45742;-70
2021/07/25 00:56:45;;;;;;;;;2.75;1.00;;;;;21.13;61.35;100453.53;5010404;28;45683;-70
2021/07/25 00:59:12;;;;;;;;;1.25;1.25;;;;;21.15;62.01;100448.75;4986498;28;45464;-70
2021/07/25 01:01:37;;;;;;;;;1.75;1.75;;;;;21.15;61.21;100451.44;5011921;28;45555;-68
2021/07/25 01:04:10;;;;;;;;;1.00;1.00;;;;;21.12;61.52;100443.03;5011207;28;45741;-68
2021/07/25 01:06:53;;;;;;;;;3.75;2.25;;;;;21.11;61.67;100444.88;5007310;28;45404;-68
2021/07/25 01:09:40;;;;;;;;;3.00;1.75;;;;;21.10;61.14;100440.56;5005132;28;45593;-72
2021/07/25 01:12:08;;;;;;;;;3.75;1.25;;;;;21.03;61.16;100437.94;5010926;28;45411;-69
2021/07/25 01:14:35;;;;;;;;;1.00;1.00;;;;;20.93;63.21;100428.78;4989846;28;46435;-70
2021/07/25 01:17:23;;;;;;;;;2.25;1.00;;;;;20.84;61.98;100433.63;4993058;28;45459;-70
2021/07/25 01:19:52;;;;;;;;;3.00;1.75;;;;;20.80;62.32;100424.38;5000576;28;45577;-69
2021/07/25 01:22:17;;;;;;;;;2.50;2.00;;;;;20.82;61.89;100433.88;4998392;28;45650;-72
2021/07/25 01:24:43;;;;;;;;;2.00;2.00;;;;;20.84;62.28;100425.56;5006685;28;45474;-68
2021/07/25 01:27:15;;;;;;;;;4.75;1.75;;;;;20.85;61.88;100431.78;5013319;28;45469;-70
2021/07/25 01:29:42;;;;;;;;;1.00;1.00;;;;;20.83;62.09;100432.00;5009768;28;45489;-69
2021/07/25 01:32:09;;;;;;;;;2.50;2.00;;;;;20.82;61.97;100439.22;5007903;28;45545;-70
2021/07/25 01:34:36;;;;;;;;;1.25;1.00;;;;;20.82;61.93;100439.22;5015149;28;45492;-68
2021/07/25 01:37:02;;;;;;;;;2.00;1.00;;;;;20.83;62.88;100446.22;5012185;28;45508;-70
2021/07/25 01:39:27;;;;;;;;;2.00;2.00;;;;;20.80;62.23;100440.50;5013887;28;45642;-71
2021/07/25 01:41:53;;;;;;;;;2.00;2.00;;;;;20.81;62.60;100448.31;5007329;28;45622;-70
2021/07/25 01:44:19;;;;;;;;;2.00;2.00;;;;;20.79;62.43;100446.91;5010146;28;46193;-67
2021/07/25 01:46:44;;;;;;;;;3.00;1.00;;;;;20.76;63.29;100440.13;5014227;28;45875;-71
2021/07/25 01:49:09;;;;;;;;;3.50;3.00;;;;;20.71;62.48;100441.84;5009371;28;45460;-70
2021/07/25 01:51:35;;;;;;;;;2.00;2.00;;;;;20.72;62.81;100447.00;5012797;28;45402;-69
2021/07/25 01:54:01;;;;;;;;;1.25;1.25;;;;;20.74;63.47;100446.75;5002106;28;45466;-69
2021/07/25 01:56:26;;;;;;;;;2.00;2.00;;;;;20.69;63.68;100450.09;5007805;28;45450;-70
2021/07/25 01:58:51;;;;;;;;;1.50;1.00;;;;;20.65;63.88;100443.56;5012705;28;45698;-70
2021/07/25 02:01:17;;;;;;;;;3.00;3.00;;;;;20.66;64.22;100437.13;5008581;28;45495;-70
2021/07/25 02:03:42;;;;;;;;;4.25;3.00;;;;;20.66;64.35;100447.06;5011146;28;46134;-68
2021/07/25 02:06:07;;;;;;;;;3.50;2.00;;;;;20.64;63.85;100436.53;5014720;28;45405;-67
2021/07/25 02:08:33;;;;;;;;;3.00;1.00;;;;;20.65;64.52;100446.25;5008700;28;45584;-70
2021/07/25 02:10:58;;;;;;;;;2.25;2.25;;;;;20.65;64.66;100438.19;5012877;28;45767;-69
2021/07/25 02:13:24;;;;;;;;;1.50;1.50;;;;;20.66;64.57;100439.81;5015528;28;45641;-67
2021/07/25 02:15:50;;;;;;;;;2.50;2.50;;;;;20.68;63.80;100442.28;5006977;28;45555;-70
2021/07/25 02:18:15;;;;;;;;;2.00;2.00;;;;;20.65;64.44;100430.13;5002428;28;45450;-70
2021/07/25 02:20:41;;;;;;;;;2.00;2.00;;;;;20.62;65.95;100430.56;5011401;28;45561;-70
2021/07/25 02:23:07;;;;;;;;;3.00;2.00;;;;;20.58;65.32;100440.13;5014124;28;46084;-67
2021/07/25 02:25:33;;;;;;;;;4.50;2.75;;;;;20.54;65.67;100430.81;5005753;28;45812;-71
2021/07/25 02:27:59;;;;;;;;;2.00;2.00;;;;;20.52;68.25;100427.53;5005628;28;45506;-70
2021/07/25 02:30:24;;;;;;;;;3.25;2.00;;;;;20.47;65.91;100430.06;5011677;28;45360;-69
2021/07/25 02:32:49;;;;;;;;;3.00;3.00;;;;;20.39;66.15;100428.50;5012645;28;45959;-68
2021/07/25 02:35:15;;;;;;;;;2.00;2.00;;;;;20.36;64.83;100429.75;5008645;28;45415;-69
2021/07/25 02:37:40;;;;;;;;;2.00;2.00;;;;;20.34;66.19;100434.53;5009098;28;45385;-69
2021/07/25 02:40:06;;;;;;;;;1.75;1.75;;;;;20.34;67.21;100431.84;4996486;28;45581;-70
2021/07/25 02:42:31;;;;;;;;;6.75;4.00;;;;;20.30;66.45;100429.81;4997002;28;47989;-69
2021/07/25 02:44:57;;;;;;;;;3.75;3.00;;;;;20.28;67.48;100427.38;5010015;28;45438;-71
2021/07/25 02:47:22;;;;;;;;;5.50;2.50;;;;;20.24;67.82;100425.34;5007860;28;45470;-70
2021/07/25 02:49:48;;;;;;;;;5.00;3.50;;;;;20.21;68.04;100425.78;5013940;28;45494;-68
2021/07/25 02:52:13;;;;;;;;;1.75;1.75;;;;;20.15;67.94;100422.09;5007588;28;47001;-67
2021/07/25 02:54:38;;;;;;;;;3.00;3.00;;;;;20.08;67.88;100419.50;5004999;28;45644;-71
2021/07/25 02:57:04;;;;;;;;;4.25;3.00;;;;;20.06;68.65;100423.44;5012302;28;45561;-67
2021/07/25 02:59:30;;;;;;;;;3.25;2.00;;;;;20.03;69.07;100418.47;5014324;28;45402;-68
2021/07/25 03:01:56;;;;;;;;;3.00;3.00;;;;;20.00;68.78;100422.44;5012851;28;45526;-69
2021/07/25 03:04:22;;;;;;;;;2.00;2.00;;;;;19.95;68.57;100423.09;4995082;28;45610;-71
2021/07/25 03:06:48;;;;;;;;;3.25;3.00;;;;;19.88;70.42;100419.66;5010255;28;45438;-70
2021/07/25 03:09:13;;;;;;;;;2.25;2.25;;;;;19.78;69.84;100416.63;4989335;28;45740;-67
2021/07/25 03:11:39;;;;;;;;;3.00;2.75;;;;;19.74;70.46;100415.44;4999299;28;45592;-72
2021/07/25 03:14:06;;;;;;;;;2.75;2.75;;;;;19.76;70.21;100416.03;4995434;28;45613;-67
2021/07/25 03:16:32;;;;;;;;;2.50;2.50;;;;;19.72;70.29;100414.81;4988470;28;45477;-67
2021/07/25 03:18:57;;;;;;;;;4.25;4.00;;;;;19.65;70.99;100414.00;5004058;28;45564;-70
2021/07/25 03:21:22;;;;;;;;;3.00;3.00;;;;;19.59;73.58;100417.56;5007259;28;45522;-69
2021/07/25 03:23:48;;;;;;;;;3.00;3.00;;;;;19.50;71.29;100409.75;5006098;28;45470;-71
2021/07/25 03:26:13;;;;;;;;;3.75;3.50;;;;;19.46;71.80;100408.56;5007473;28;45916;-67
2021/07/25 03:28:38;;;;;;;;;5.00;3.00;;;;;19.44;71.73;100412.50;5008074;28;45443;-70
2021/07/25 03:31:04;;;;;;;;;4.75;3.75;;;;;19.48;71.96;100411.00;5011241;28;45665;-68
2021/07/25 03:33:29;;;;;;;;;2.50;2.50;;;;;19.50;72.48;100417.81;5013452;28;45426;-70
2021/07/25 03:35:55;;;;;;;;;2.75;2.75;;;;;19.44;72.37;100416.00;5007939;28;45512;-68
2021/07/25 03:38:20;;;;;;;;;5.00;4.00;;;;;19.39;72.50;100410.47;5008153;28;45511;-69
2021/07/25 03:40:46;;;;;;;;;3.25;3.25;;;;;19.39;72.42;100407.78;5010058;28;45520;-72
2021/07/25 03:43:13;;;;;;;;;2.75;2.75;;;;;19.33;72.58;100408.63;5007659;28;45547;-67
2021/07/25 03:45:44;;;;;;;;;5.00;3.75;;;;;19.28;72.82;100400.41;5010797;28;45569;-68
2021/07/25 03:48:10;;;;;;;;;2.50;2.50;;;;;19.29;73.11;100407.44;5007571;28;45842;-67
2021/07/25 03:50:37;;;;;;;;;3.00;2.00;;;;;19.29;73.56;100407.44;5002837;28;45805;-68
2021/07/25 03:53:03;;;;;;;;;4.25;2.50;;;;;19.24;73.18;100400.03;5008248;28;45559;-71
2021/07/25 03:55:28;;;;;;;;;7.25;3.00;;;;;19.24;73.05;100404.56;5008871;28;45619;-69
2021/07/25 03:57:56;;;;;;;;;6.75;4.00;;;;;19.21;73.74;100400.44;5008268;28;45469;-71
2021/07/25 04:00:21;;;;;;;;;4.50;3.25;;;;;19.18;73.12;100405.41;5011155;28;46003;-70
2021/07/25 04:02:46;;;;;;;;;3.00;3.00;;;;;19.15;73.80;100404.00;5013055;28;45508;-69
2021/07/25 04:05:12;;;;;;;;;5.25;3.25;;;;;19.15;75.78;100400.50;5012808;28;45565;-70
2021/07/25 04:07:37;;;;;;;;;3.50;3.00;;;;;19.11;76.86;100405.44;5011002;28;45548;-69
2021/07/25 04:10:03;;;;;;;;;3.25;3.25;;;;;19.04;73.67;100394.78;5008437;28;46101;-69
2021/07/25 04:12:29;;;;;;;;;3.00;3.00;;;;;19.02;73.58;100402.19;5009589;28;45872;-72
2021/07/25 04:14:54;;;;;;;;;4.50;2.75;;;;;19.02;75.41;100391.50;5002859;28;45436;-71
2021/07/25 04:17:20;;;;;;;;;4.75;3.00;;;;;19.00;75.79;100390.06;5000890;28;45465;-71
2021/07/25 04:19:45;;;;;;;;;5.75;3.25;;;;;18.93;74.45;100394.63;5011369;28;46294;-68
2021/07/25 04:22:10;;;;;;;;;6.00;3.50;;;;;18.90;76.13;100394.00;5012313;28;45435;-69
2021/07/25 04:24:36;;;;;;;;;5.75;4.00;;;;;18.89;75.56;100397.72;5007723;28;45615;-74
2021/07/25 04:27:01;;;;;;;;;2.50;2.25;;;;;18.89;74.25;100395.03;5002679;28;45610;-71
2021/07/25 04:29:27;;;;;;;;;4.00;4.00;;;;;18.91;76.55;100397.50;5002248;28;46450;-73
2021/07/25 04:31:53;;;;;;;;;5.50;2.75;;;;;18.89;74.71;100391.53;5010625;28;45524;-70
2021/07/25 04:34:19;;;;;;;;;3.25;2.25;;;;;18.89;75.35;100395.03;5005464;28;45549;-71
2021/07/25 04:36:44;;;;;;;;;6.25;4.00;;;;;18.87;75.12;100393.63;5006994;28;45428;-70
2021/07/25 04:39:11;;;;;;;;;3.75;3.25;;;;;18.89;75.59;100396.88;5006550;28;45582;-67
2021/07/25 04:41:50;;;;;;;;;4.75;3.00;;;;;18.90;74.73;100396.69;4998649;28;45437;-68
2021/07/25 04:44:28;;;;;;;;;4.75;3.00;;;;;18.92;74.66;100393.81;5003223;28;45782;-71
2021/07/25 04:46:57;;;;;;;;;3.00;3.00;;;;;18.96;76.37;100399.53;5008112;28;45833;-69
2021/07/25 04:49:33;;;;;;;;;4.50;2.75;;;;;18.96;75.16;100397.69;5005506;28;45534;-69
2021/07/25 04:51:59;;;;;;;;;5.75;3.75;;;;;18.96;77.18;100400.34;5008980;28;45545;-71
2021/07/25 04:54:32;;;;;;;;;3.25;3.00;;;;;18.95;75.66;100404.09;5011861;28;45517;-71
2021/07/25 04:57:01;;;;;;;;;4.00;2.00;;;;;18.92;78.76;100399.16;5011235;28;45542;-69
2021/07/25 04:59:39;;;;;;;;;4.75;3.75;;;;;18.93;75.78;100403.47;5005726;28;46480;-72
2021/07/25 05:02:06;;;;;;;;;3.75;2.00;;;;;18.89;77.66;100405.75;5005404;28;45712;-69
2021/07/25 05:04:32;;;;;;;;;1.50;1.50;;;;;18.86;75.78;100406.16;5012862;28;45471;-69
2021/07/25 05:06:58;;;;;;;;;5.00;4.25;;;;;18.87;77.01;100404.31;5012914;28;45382;-69
2021/07/25 05:09:24;;;;;;;;;3.75;3.00;;;;;18.88;75.62;100403.28;5002128;28;46012;-74
2021/07/25 05:12:01;;;;;;;;;4.25;3.25;;;;;18.93;76.36;100408.00;5009246;28;45554;-68
2021/07/25 05:14:35;;;;;;;;;4.50;3.00;;;;;18.91;75.55;100405.53;5001458;28;45524;-72
2021/07/25 05:17:30;;;;;;;;;5.75;3.00;;;;;18.93;75.50;100406.13;5014143;28;45555;-69
2021/07/25 05:19:58;;;;;;;;;2.75;2.50;;;;;18.96;77.28;100410.25;5009494;28;46018;-69
2021/07/25 05:22:28;;;;;;;;;2.75;2.75;;;;;18.94;77.51;100409.63;5003637;28;45693;-69
2021/07/25 05:24:55;;;;;;;;;4.25;2.00;;;;;18.90;75.35;100411.94;5010920;28;45508;-71
2021/07/25 05:27:23;;;;;;;;;5.25;3.75;;;;;18.92;75.75;100417.91;5014947;28;45559;-71
2021/07/25 05:29:51;;;;;;;;;4.00;3.00;;;;;18.92;75.40;100409.88;5007436;28;46088;-73
2021/07/25 05:32:19;;;;;;;;;2.75;2.50;;;;;18.96;75.70;100412.94;5014566;28;45615;-69
2021/07/25 05:34:45;;;;;;;;;4.75;3.75;;;;;18.97;76.40;100419.94;5001732;28;45572;-70
2021/07/25 05:37:10;;;;;;;;;5.25;3.00;;;;;18.95;77.46;100420.16;5004861;28;45394;-74
2021/07/25 05:39:36;;;;;;;;;3.75;2.75;;;;;18.95;75.75;100419.34;5010743;28;45833;-69
2021/07/25 05:42:01;;;;;;;;;5.50;3.25;;;;;18.98;75.86;100409.00;5015289;28;45487;-69
2021/07/25 05:44:27;;;;;;;;;3.00;3.00;;;;;19.05;75.31;100417.84;5009334;28;45554;-70
2021/07/25 05:46:52;;;;;;;;;4.00;2.75;;;;;19.11;75.52;100414.31;5013256;28;45977;-70
2021/07/25 05:49:18;;;;;;;;;3.25;2.25;;;;;19.19;75.37;100412.41;5014539;28;45691;-69
2021/07/25 05:51:43;;;;;;;;;6.25;3.25;;;;;19.24;76.37;100407.25;5006803;28;45705;-75
2021/07/25 05:54:09;;;;;;;;;5.50;2.00;;;;;19.24;75.39;100401.91;5007200;28;45530;-75
2021/07/25 05:56:34;;;;;;;;;3.50;3.00;;;;;19.31;74.89;100398.16;5005349;28;45606;-70
2021/07/25 05:58:59;;;;;;;;;4.50;3.00;;;;;19.41;75.17;100388.78;5011933;28;45394;-74
2021/07/25 06:01:25;;;;;;;;;4.50;2.00;;;;;19.48;74.61;100395.75;5010021;28;45469;-71
2021/07/25 06:03:50;;;;;;;;;5.50;4.50;;;;;19.55;75.01;100390.34;5008386;28;45494;-71
2021/07/25 06:06:15;;;;;;;;;3.00;2.00;;;;;19.61;73.58;100394.03;5012238;28;45374;-75
2021/07/25 06:08:41;;;;;;;;;5.50;2.50;;;;;19.63;74.25;100387.41;5009436;28;45449;-70
2021/07/25 06:11:07;;;;;;;;;4.25;3.50;;;;;19.66;73.99;100386.19;4991088;28;45463;-69
2021/07/25 06:13:32;;;;;;;;;4.00;3.75;;;;;19.72;73.72;100385.31;5011444;28;45807;-75
2021/07/25 06:15:58;;;;;;;;;3.75;3.75;;;;;19.80;73.21;100403.81;5003635;28;45374;-72
2021/07/25 06:18:23;;;;;;;;;4.75;4.00;;;;;19.90;72.90;100397.97;5005284;28;46050;-71
2021/07/25 06:20:48;;;;;;;;;5.25;3.00;;;;;19.98;72.68;100403.88;5005518;28;45526;-74
2021/07/25 06:23:14;;;;;;;;;4.00;3.75;;;;;20.01;72.31;100409.88;5006983;28;45822;-68
2021/07/25 06:25:41;;;;;;;;;4.50;3.75;;;;;20.05;71.96;100405.69;5009189;28;45594;-69
2021/07/25 06:28:06;;;;;;;;;5.50;5.00;;;;;20.12;72.74;100406.44;5003581;28;45645;-72
2021/07/25 06:30:32;;;;;;;;;5.25;4.00;;;;;20.24;71.67;100404.69;5009306;28;45520;-70
2021/07/25 06:33:05;;;;;;;;;5.75;3.50;;;;;20.27;71.64;100408.78;5006698;28;45482;-68
2021/07/25 06:35:35;;;;;;;;;7.00;4.00;;;;;20.27;71.86;100403.44;5007081;28;45603;-71
2021/07/25 06:38:05;;;;;;;;;5.50;4.25;;;;;20.36;71.77;100416.34;5009916;28;45672;-70
2021/07/25 06:40:32;;;;;;;;;5.00;5.00;;;;;20.43;70.93;100412.78;5010121;28;45622;-73
2021/07/25 06:42:59;;;;;;;;;4.00;4.00;;;;;20.49;70.59;100409.19;4994013;28;46673;-75
2021/07/25 06:45:25;;;;;;;;;5.00;4.00;;;;;20.53;70.43;100399.66;5006826;28;45600;-70
2021/07/25 06:47:51;;;;;;;;;3.50;3.00;;;;;20.49;70.43;100398.47;5005442;28;45821;-71
2021/07/25 06:50:24;;;;;;;;;4.00;4.00;;;;;20.48;71.16;100413.75;4992945;28;45597;-69
2021/07/25 06:52:51;;;;;;;;;6.75;5.00;;;;;20.45;70.65;100416.03;5012935;28;45441;-68
2021/07/25 06:55:21;;;;;;;;;6.75;4.00;;;;;20.53;70.53;100407.72;5013959;28;45502;-71
2021/07/25 06:57:47;;;;;;;;;4.00;4.00;;;;;20.75;70.18;100403.56;5005479;28;45432;-71
2021/07/25 07:00:13;;;;;;;;;4.50;4.00;;;;;20.83;69.64;100400.56;5004440;28;45514;-72
2021/07/25 07:02:57;;;;;;;;;5.00;3.00;;;;;20.88;69.57;100399.91;5014088;28;45503;-71
2021/07/25 07:05:24;;;;;;;;;4.00;4.00;;;;;20.88;69.22;100404.47;5000267;28;45470;-70
2021/07/25 07:07:52;;;;;;;;;6.00;5.00;;;;;20.85;69.52;100412.97;5013313;28;45449;-70
2021/07/25 07:10:19;;;;;;;;;5.75;4.75;;;;;20.75;69.27;100413.50;5008789;28;45535;-69
2021/07/25 07:12:46;;;;;;;;;5.25;4.00;;;;;20.70;69.33;100411.47;5007125;28;45571;-71
2021/07/25 07:15:13;;;;;;;;;7.00;6.25;;;;;20.64;69.87;100415.03;5012703;28;45542;-72
2021/07/25 07:17:39;;;;;;;;;4.75;4.25;;;;;20.66;69.43;100414.84;5009081;28;45451;-68
2021/07/25 07:20:09;;;;;;;;;5.50;4.50;;;;;20.67;69.93;100416.47;5007489;28;45517;-71
2021/07/25 07:22:35;;;;;;;;;4.00;4.00;;;;;20.72;69.69;100412.09;5010858;28;45552;-69
2021/07/25 07:25:01;;;;;;;;;6.00;6.00;;;;;20.75;69.56;100418.88;5004938;28;45491;-71
2021/07/25 07:27:27;;;;;;;;;7.00;6.00;;;;;20.73;69.44;100419.09;5010893;28;45546;-67
2021/07/25 07:29:54;;;;;;;;;6.25;6.00;;;;;20.83;69.35;100423.94;5005772;28;45515;-72
2021/07/25 07:32:20;;;;;;;;;2.00;2.00;;;;;20.89;69.40;100417.66;5007657;28;45399;-70
2021/07/25 07:34:45;;;;;;;;;6.75;5.00;;;;;21.04;69.34;100419.94;5011688;28;45410;-69
2021/07/25 07:37:11;;;;;;;;;5.75;5.00;;;;;21.25;68.64;100421.34;5004727;28;45451;-67
2021/07/25 07:39:41;;;;;;;;;6.00;5.25;;;;;21.38;68.14;100420.34;5014710;28;45449;-67
2021/07/25 07:42:08;;;;;;;;;8.00;6.25;;;;;21.38;67.24;100420.34;5012095;28;45519;-70
2021/07/25 07:44:35;;;;;;;;;7.25;5.75;;;;;21.26;67.13;100413.06;5013637;28;45289;-72
2021/07/25 07:47:01;;;;;;;;;8.00;6.00;;;;;21.22;66.79;100422.63;5011143;28;45987;-71
2021/07/25 07:49:26;;;;;;;;;9.00;7.00;;;;;21.12;66.50;100416.16;5006844;28;45474;-72
2021/07/25 07:51:52;;;;;;;;;6.00;6.00;;;;;21.05;67.07;100413.53;5006915;28;45686;-69
2021/07/25 07:54:18;;;;;;;;;9.25;7.25;;;;;21.01;67.51;100415.84;5010342;28;45658;-67
2021/07/25 07:56:43;;;;;;;;;6.50;5.00;;;;;21.00;67.30;100418.78;5011379;28;46176;-69
2021/07/25 07:59:08;;;;;;;;;6.75;6.75;;;;;21.03;67.48;100418.31;5008077;28;45513;-68
2021/07/25 08:01:34;;;;;;;;;6.00;5.50;;;;;21.08;67.28;100413.09;5002319;28;45376;-71
2021/07/25 08:03:59;;;;;;;;;10.00;7.00;;;;;21.14;66.82;100422.94;4991766;28;45550;-71
2021/07/25 08:06:25;;;;;;;;;6.50;4.75;;;;;21.14;67.03;100420.25;5006155;28;45583;-71
2021/07/25 08:08:50;;;;;;;;;8.00;6.00;;;;;21.12;66.93;100422.34;5019479;28;45528;-69
2021/07/25 08:11:16;;;;;;;;;8.50;6.50;;;;;21.12;66.74;100426.91;5010550;28;45585;-67
2021/07/25 08:13:43;;;;;;;;;6.50;6.50;;;;;21.08;67.30;100421.16;5012989;28;45437;-67
2021/07/25 08:16:09;;;;;;;;;9.00;5.25;;;;;20.96;67.65;100425.63;5009598;28;45267;-71
2021/07/25 08:18:35;;;;;;;;;7.50;6.75;;;;;20.83;67.89;100415.88;5011307;28;45472;-68
2021/07/25 08:21:00;;;;;;;;;5.25;5.00;;;;;20.82;68.21;100420.44;5006398;28;45424;-69
2021/07/25 08:23:26;;;;;;;;;7.50;6.00;;;;;20.87;68.12;100422.44;5023601;28;45927;-68
2021/07/25 08:25:51;;;;;;;;;7.00;7.00;;;;;20.96;67.73;100421.06;5016109;28;46124;-71
2021/07/25 08:28:17;;;;;;;;;8.25;7.25;;;;;21.03;67.64;100415.63;5013266;28;45709;-68
2021/07/25 08:30:42;;;;;;;;;8.50;8.00;;;;;21.18;67.67;100421.44;5008863;28;45895;-67
2021/07/25 08:33:07;;;;;;;;;8.25;6.50;;;;;21.29;66.84;100422.53;5011868;28;45454;-70
2021/07/25 08:35:33;;;;;;;;;6.75;6.75;;;;;21.38;66.27;100414.97;5022647;28;46048;-69
2021/07/25 08:37:58;;;;;;;;;6.00;6.00;;;;;21.43;65.54;100413.25;5024762;28;45423;-70
2021/07/25 08:40:24;;;;;;;;;7.75;7.00;;;;;21.47;65.59;100424.38;5021056;28;45595;-70
2021/07/25 08:43:07;;;;;;;;;8.25;7.00;;;;;21.53;66.35;100417.28;5018762;28;45579;-70
2021/07/25 08:45:35;;;;;;;;;8.50;6.75;;;;;21.64;65.38;100411.94;5012946;28;46295;-69
2021/07/25 08:48:03;;;;;;;;;6.75;6.25;;;;;21.68;65.25;100417.66;4995345;28;45547;-69
2021/07/25 08:50:31;;;;;;;;;11.25;8.00;;;;;21.81;64.96;100420.16;5017444;28;45711;-70
2021/07/25 08:53:02;;;;;;;;;8.00;7.00;;;;;22.06;64.23;100406.50;5015881;28;45459;-70
2021/07/25 08:55:28;;;;;;;;;10.50;6.25;;;;;22.28;63.56;100408.66;5014388;28;47034;-70
2021/07/25 08:57:53;;;;;;;;;10.50;7.00;;;;;22.46;63.59;100408.50;5012995;28;45468;-70
2021/07/25 09:00:22;;;;;;;;;8.00;7.00;;;;;22.61;62.66;100412.59;5010933;28;45595;-67
2021/07/25 09:02:50;;;;;;;;;8.50;7.25;;;;;22.51;62.41;100414.00;5010492;28;45531;-68
2021/07/25 09:05:16;;;;;;;;;10.00;7.00;;;;;22.34;62.72;100405.00;5016115;28;46315;-67
2021/07/25 09:07:45;;;;;;;;;8.00;8.00;;;;;22.19;63.09;100410.03;5011482;28;45556;-68
2021/07/25 09:10:12;;;;;;;;;6.75;6.75;;;;;22.08;65.01;100417.84;5015429;28;45568;-66
2021/07/25 09:12:39;;;;;;;;;8.25;7.00;;;;;21.95;65.45;100414.56;4993371;28;45653;-71
2021/07/25 09:15:08;;;;;;;;;11.75;9.75;;;;;21.84;66.13;100424.25;5016313;28;45907;-71
2021/07/25 09:17:35;;;;;;;;;8.25;7.00;;;;;21.76;66.82;100429.94;5014503;28;45459;-66
2021/07/25 09:20:40;;;;;;;;;9.25;8.75;;;;;21.62;66.98;100422.09;4997296;28;45445;-70
2021/07/25 09:23:10;;;;;;;;;8.50;7.25;;;;;21.50;67.43;100434.69;4997380;28;45654;-68
2021/07/25 09:25:40;;;;;;;;;10.75;9.25;;;;;21.34;70.10;100432.59;5016638;28;46197;-72
2021/07/25 09:28:15;;;;;;;;;11.50;9.75;;;;;21.08;72.85;100431.91;5008480;28;45887;-65
2021/07/25 09:30:40;;;;;;;;;10.00;9.00;;;;;20.63;78.07;100445.63;5004677;28;45509;-68
2021/07/25 09:33:31;;;;;;;;;10.25;8.25;;;;;20.07;83.83;100441.16;5006122;28;45457;-69
2021/07/25 09:36:08;;;;;;;;;14.50;11.00;;;;;19.73;86.42;100432.53;5000551;28;45581;-66
2021/07/25 09:38:34;;;;;;;;;8.50;8.50;;;;;19.61;87.44;100431.53;5003274;28;45499;-64
2021/07/25 09:41:01;;;;;;;;;9.00;7.25;;;;;19.57;87.61;100430.34;5012363;28;45520;-68
2021/07/25 09:43:27;;;;;;;;;7.00;7.00;;;;;19.59;85.59;100428.28;5011728;28;45481;-76
2021/07/25 09:45:54;;;;;;;;;8.00;7.50;;;;;19.70;86.76;100431.09;5008081;28;46260;-72
2021/07/25 09:48:21;;;;;;;;;11.50;9.00;;;;;19.86;87.07;100435.13;5004169;28;45562;-65
2021/07/25 09:50:47;;;;;;;;;11.25;8.00;;;;;19.92;86.09;100431.56;5007396;28;45591;-70
2021/07/25 09:53:13;;;;;;;;;12.25;11.25;;;;;19.99;85.87;100428.84;5004366;28;45694;-67
2021/07/25 09:55:39;;;;;;;;;8.75;7.50;;;;;20.08;83.31;100427.53;5009945;28;46064;-72
2021/07/25 09:58:05;;;;;;;;;13.75;10.75;;;;;20.11;81.25;100431.66;4994573;28;45493;-74
2021/07/25 10:00:56;;;;;;;;;7.50;6.75;;;;;20.13;79.45;100425.03;5009793;28;45454;-66
2021/07/25 10:03:32;;;;;;;;;10.75;10.75;;;;;20.09;79.27;100421.13;5004954;28;45719;-66
2021/07/25 10:05:58;;;;;;;;;8.75;7.75;;;;;20.20;79.61;100419.56;5005961;28;45561;-74
2021/07/25 10:08:24;;;;;;;;;11.25;9.00;;;;;20.37;79.39;100420.66;5004672;28;45572;-69
2021/07/25 10:10:52;;;;;;;;;12.50;9.00;;;;;20.69;78.00;100414.38;5012123;28;45438;-68
2021/07/25 10:13:26;;;;;;;;;9.25;9.25;;;;;20.90;77.51;100415.81;5005051;28;45487;-73
2021/07/25 10:15:59;;;;;;;;;11.00;8.75;;;;;21.16;78.16;100420.81;5001172;28;45462;-74
2021/07/25 10:18:27;;;;;;;;;9.75;7.50;;;;;21.41;75.49;100407.31;5007588;28;45892;-65
2021/07/25 10:21:00;;;;;;;;;8.25;8.00;;;;;21.51;74.56;100416.66;5011529;28;45466;-70
2021/07/25 10:23:32;;;;;;;;;11.00;8.00;;;;;21.64;74.76;100411.13;5002038;28;45530;-66
2021/07/25 10:26:01;;;;;;;;;15.75;10.00;;;;;21.90;74.07;100409.88;5008325;28;46164;-70
2021/07/25 10:28:29;;;;;;;;;10.75;9.00;;;;;22.21;73.12;100413.34;5002736;28;45642;-63
2021/07/25 10:30:58;;;;;;;;;11.00;10.00;;;;;22.75;72.92;100401.34;5002353;28;45551;-69
2021/07/25 10:33:23;;;;;;;;;10.75;7.00;;;;;23.08;71.29;100396.34;5001717;28;45733;-67
2021/07/25 10:35:52;;;;;;;;;10.75;7.50;;;;;23.95;68.29;100405.97;5003843;28;45501;-66
2021/07/25 10:38:17;;;;;;;;;6.00;6.00;;;;;25.01;65.26;100391.50;5004197;28;45514;-74
2021/07/25 10:40:45;;;;;;;;;6.50;5.75;;;;;25.89;58.30;100400.25;5006245;28;45690;-66
2021/07/25 10:43:13;;;;;;;;;6.75;6.75;;;;;26.66;63.30;100399.94;5001051;28;45558;-72
2021/07/25 10:45:39;;;;;;;;;8.25;6.75;;;;;27.11;58.92;100396.56;5002366;28;45987;-68
2021/07/25 10:48:16;;;;;;;;;10.25;6.50;;;;;27.73;55.15;100396.69;5002948;28;45508;-68
2021/07/25 10:50:43;;;;;;;;;7.50;6.00;;;;;27.91;53.27;100390.72;5001884;28;45430;-71
2021/07/25 10:53:21;;;;;;;;;9.00;7.50;;;;;28.02;55.69;100383.38;5005599;28;45533;-66
2021/07/25 10:55:47;;;;;;;;;5.00;4.25;;;;;28.40;55.51;100386.56;5006795;28;46013;-66
2021/07/25 10:58:18;;;;;;;;;9.00;6.75;;;;;28.81;53.56;100384.53;5003890;28;45618;-69
2021/07/25 11:00:51;;;;;;;;;7.50;6.75;;;;;29.06;49.57;100385.53;4998651;28;45504;-68
2021/07/25 11:03:26;;;;;;;;;9.25;7.00;;;;;29.27;50.25;100381.56;4986726;28;46045;-67
2021/07/25 11:06:07;;;;;;;;;8.75;7.25;;;;;29.29;52.06;100379.38;5004361;28;45566;-67
2021/07/25 11:08:34;;;;;;;;;7.50;6.75;;;;;29.37;51.36;100378.75;4991540;28;45749;-68
2021/07/25 11:11:00;;;;;;;;;7.75;7.75;;;;;29.52;51.27;100377.03;5007410;28;45526;-73
2021/07/25 11:13:41;;;;;;;;;8.75;7.50;;;;;30.00;45.26;100375.28;5009202;28;45760;-68
2021/07/25 11:16:31;;;;;;;;;6.50;6.50;;;;;29.95;49.58;100369.06;5003605;28;46261;-73
2021/07/25 11:19:17;;;;;;;;;7.25;6.00;;;;;30.49;49.26;100367.97;4997257;28;45881;-68
2021/07/25 11:21:47;;;;;;;;;7.25;5.25;;;;;31.04;48.63;100368.34;4905142;28;45636;-67
2021/07/25 11:24:28;;;;;;;;;7.00;7.00;;;;;31.17;46.15;100376.91;4896457;28;45578;-72
2021/07/25 11:26:59;;;;;;;;;6.50;6.00;;;;;30.57;45.96;100372.78;4898930;28;50991;-67